sensor_id;sensor_type;location;lat;lon;timestamp;P1;durP1;ratioP1;P2;durP2;ratioP2
9334;SDS011;4706;41.844;26.082;2023-08-20T00:00:18;17.02;;;14.27;;
9334;SDS011;4706;41.844;26.082;2023-08-20T00:02:45;15.48;;;13.85;;
9334;SDS011;4706;41.844;26.082;2023-08-20T00:05:12;15.07;;;13.75;;
9334;SDS011;4706;41.844;26.082;2023-08-20T00:07:38;15.00;;;13.55;;
9334;SDS011;4706;41.844;26.082;2023-08-20T00:10:06;16.08;;;14.43;;
9334;SDS011;4706;41.844;26.082;2023-08-20T00:12:32;15.32;;;13.98;;
9334;SDS011;4706;41.844;26.082;2023-08-20T00:14:58;14.77;;;13.10;;
9334;SDS011;4706;41.844;26.082;2023-08-20T00:17:34;13.60;;;12.50;;
9334;SDS011;4706;41.844;26.082;2023-08-20T00:20:00;14.00;;;12.60;;
9334;SDS011;4706;41.844;26.082;2023-08-20T00:22:29;13.20;;;11.98;;
9334;SDS011;4706;41.844;26.082;2023-08-20T00:24:55;13.75;;;12.05;;
9334;SDS011;4706;41.844;26.082;2023-08-20T00:27:21;14.43;;;12.93;;
9334;SDS011;4706;41.844;26.082;2023-08-20T00:29:47;15.15;;;13.63;;
9334;SDS011;4706;41.844;26.082;2023-08-20T00:32:14;15.73;;;14.13;;
9334;SDS011;4706;41.844;26.082;2023-08-20T00:34:40;16.00;;;14.48;;
9334;SDS011;4706;41.844;26.082;2023-08-20T00:37:05;15.93;;;14.32;;
9334;SDS011;4706;41.844;26.082;2023-08-20T00:39:31;15.60;;;13.30;;
9334;SDS011;4706;41.844;26.082;2023-08-20T00:41:56;14.98;;;13.65;;
9334;SDS011;4706;41.844;26.082;2023-08-20T00:44:22;14.23;;;12.93;;
9334;SDS011;4706;41.844;26.082;2023-08-20T00:46:47;14.90;;;13.50;;
9334;SDS011;4706;41.844;26.082;2023-08-20T00:49:14;13.23;;;12.18;;
9334;SDS011;4706;41.844;26.082;2023-08-20T00:51:39;13.18;;;12.05;;
9334;SDS011;4706;41.844;26.082;2023-08-20T00:54:05;14.05;;;12.75;;
9334;SDS011;4706;41.844;26.082;2023-08-20T00:56:30;15.18;;;12.70;;
9334;SDS011;4706;41.844;26.082;2023-08-20T00:58:56;13.60;;;12.15;;
9334;SDS011;4706;41.844;26.082;2023-08-20T01:01:23;12.70;;;11.52;;
9334;SDS011;4706;41.844;26.082;2023-08-20T01:03:48;12.40;;;11.05;;
9334;SDS011;4706;41.844;26.082;2023-08-20T01:08:51;11.27;;;10.27;;
9334;SDS011;4706;41.844;26.082;2023-08-20T01:11:30;13.63;;;11.90;;
9334;SDS011;4706;41.844;26.082;2023-08-20T01:14:02;12.00;;;10.98;;
9334;SDS011;4706;41.844;26.082;2023-08-20T01:16:39;11.63;;;10.63;;
9334;SDS011;4706;41.844;26.082;2023-08-20T01:19:04;11.98;;;10.75;;
9334;SDS011;4706;41.844;26.082;2023-08-20T01:21:38;12.38;;;11.10;;
9334;SDS011;4706;41.844;26.082;2023-08-20T01:29:44;10.95;;;9.80;;
9334;SDS011;4706;41.844;26.082;2023-08-20T01:32:10;12.90;;;10.05;;
9334;SDS011;4706;41.844;26.082;2023-08-20T01:34:37;10.73;;;9.25;;
9334;SDS011;4706;41.844;26.082;2023-08-20T01:37:03;10.00;;;8.98;;
9334;SDS011;4706;41.844;26.082;2023-08-20T01:39:29;9.52;;;8.73;;
9334;SDS011;4706;41.844;26.082;2023-08-20T01:41:54;10.80;;;8.95;;
9334;SDS011;4706;41.844;26.082;2023-08-20T01:44:20;11.23;;;9.63;;
9334;SDS011;4706;41.844;26.082;2023-08-20T01:46:45;10.02;;;9.23;;
9334;SDS011;4706;41.844;26.082;2023-08-20T01:49:11;10.80;;;8.57;;
9334;SDS011;4706;41.844;26.082;2023-08-20T01:51:36;10.25;;;9.00;;
9334;SDS011;4706;41.844;26.082;2023-08-20T01:54:02;9.80;;;8.70;;
9334;SDS011;4706;41.844;26.082;2023-08-20T01:56:27;8.82;;;8.02;;
9334;SDS011;4706;41.844;26.082;2023-08-20T01:58:53;10.57;;;8.35;;
9334;SDS011;4706;41.844;26.082;2023-08-20T02:01:18;12.07;;;8.80;;
9334;SDS011;4706;41.844;26.082;2023-08-20T02:03:44;9.10;;;8.30;;
9334;SDS011;4706;41.844;26.082;2023-08-20T02:06:10;10.55;;;9.02;;
9334;SDS011;4706;41.844;26.082;2023-08-20T02:08:35;9.70;;;8.32;;
9334;SDS011;4706;41.844;26.082;2023-08-20T02:11:01;9.27;;;8.43;;
9334;SDS011;4706;41.844;26.082;2023-08-20T02:13:28;12.30;;;9.10;;
9334;SDS011;4706;41.844;26.082;2023-08-20T02:16:01;8.90;;;8.15;;
9334;SDS011;4706;41.844;26.082;2023-08-20T02:18:28;9.93;;;8.93;;
9334;SDS011;4706;41.844;26.082;2023-08-20T02:20:54;9.23;;;8.43;;
9334;SDS011;4706;41.844;26.082;2023-08-20T02:23:19;10.20;;;9.25;;
9334;SDS011;4706;41.844;26.082;2023-08-20T02:25:45;9.80;;;8.85;;
9334;SDS011;4706;41.844;26.082;2023-08-20T02:28:11;10.63;;;8.68;;
9334;SDS011;4706;41.844;26.082;2023-08-20T02:30:41;10.45;;;8.52;;
9334;SDS011;4706;41.844;26.082;2023-08-20T02:33:08;11.10;;;9.00;;
9334;SDS011;4706;41.844;26.082;2023-08-20T02:35:34;9.93;;;8.90;;
9334;SDS011;4706;41.844;26.082;2023-08-20T02:37:59;8.90;;;8.13;;
9334;SDS011;4706;41.844;26.082;2023-08-20T02:40:24;9.38;;;8.68;;
9334;SDS011;4706;41.844;26.082;2023-08-20T02:42:50;9.90;;;9.07;;
9334;SDS011;4706;41.844;26.082;2023-08-20T02:45:15;9.30;;;8.35;;
9334;SDS011;4706;41.844;26.082;2023-08-20T02:47:41;9.30;;;8.50;;
9334;SDS011;4706;41.844;26.082;2023-08-20T02:50:06;10.32;;;9.40;;
9334;SDS011;4706;41.844;26.082;2023-08-20T02:52:32;10.13;;;8.65;;
9334;SDS011;4706;41.844;26.082;2023-08-20T02:54:58;9.27;;;8.48;;
9334;SDS011;4706;41.844;26.082;2023-08-20T02:57:23;10.00;;;9.07;;
9334;SDS011;4706;41.844;26.082;2023-08-20T02:59:49;9.85;;;8.95;;
9334;SDS011;4706;41.844;26.082;2023-08-20T03:02:15;10.07;;;8.95;;
9334;SDS011;4706;41.844;26.082;2023-08-20T03:04:41;12.15;;;9.32;;
9334;SDS011;4706;41.844;26.082;2023-08-20T03:07:06;9.60;;;8.68;;
9334;SDS011;4706;41.844;26.082;2023-08-20T03:09:32;10.30;;;9.30;;
9334;SDS011;4706;41.844;26.082;2023-08-20T03:11:58;10.27;;;9.38;;
9334;SDS011;4706;41.844;26.082;2023-08-20T03:14:23;11.32;;;9.30;;
9334;SDS011;4706;41.844;26.082;2023-08-20T03:16:49;10.27;;;9.25;;
9334;SDS011;4706;41.844;26.082;2023-08-20T03:19:14;10.48;;;9.57;;
9334;SDS011;4706;41.844;26.082;2023-08-20T03:21:41;11.05;;;9.57;;
9334;SDS011;4706;41.844;26.082;2023-08-20T03:24:07;12.25;;;9.55;;
9334;SDS011;4706;41.844;26.082;2023-08-20T03:26:33;10.40;;;9.48;;
9334;SDS011;4706;41.844;26.082;2023-08-20T03:28:58;10.45;;;9.35;;
9334;SDS011;4706;41.844;26.082;2023-08-20T03:31:24;10.82;;;9.50;;
9334;SDS011;4706;41.844;26.082;2023-08-20T03:33:50;9.93;;;9.18;;
9334;SDS011;4706;41.844;26.082;2023-08-20T03:36:15;10.75;;;9.75;;
9334;SDS011;4706;41.844;26.082;2023-08-20T03:38:41;10.93;;;9.90;;
9334;SDS011;4706;41.844;26.082;2023-08-20T03:41:07;11.57;;;10.57;;
9334;SDS011;4706;41.844;26.082;2023-08-20T03:43:32;11.00;;;9.90;;
9334;SDS011;4706;41.844;26.082;2023-08-20T03:45:58;10.38;;;9.48;;
9334;SDS011;4706;41.844;26.082;2023-08-20T03:48:23;11.75;;;9.75;;
9334;SDS011;4706;41.844;26.082;2023-08-20T03:50:49;10.93;;;9.93;;
9334;SDS011;4706;41.844;26.082;2023-08-20T03:53:15;10.00;;;9.10;;
9334;SDS011;4706;41.844;26.082;2023-08-20T03:55:40;10.50;;;9.50;;
9334;SDS011;4706;41.844;26.082;2023-08-20T03:58:07;10.75;;;9.85;;
9334;SDS011;4706;41.844;26.082;2023-08-20T04:00:34;10.95;;;9.88;;
9334;SDS011;4706;41.844;26.082;2023-08-20T04:03:00;14.77;;;9.80;;
9334;SDS011;4706;41.844;26.082;2023-08-20T04:05:26;10.18;;;9.13;;
9334;SDS011;4706;41.844;26.082;2023-08-20T04:07:51;16.45;;;11.70;;
9334;SDS011;4706;41.844;26.082;2023-08-20T04:10:17;10.98;;;9.75;;
9334;SDS011;4706;41.844;26.082;2023-08-20T04:12:42;11.75;;;10.60;;
9334;SDS011;4706;41.844;26.082;2023-08-20T04:15:08;11.25;;;10.30;;
9334;SDS011;4706;41.844;26.082;2023-08-20T04:17:34;11.13;;;10.13;;
9334;SDS011;4706;41.844;26.082;2023-08-20T04:19:59;10.88;;;9.68;;
9334;SDS011;4706;41.844;26.082;2023-08-20T04:22:25;11.40;;;10.07;;
9334;SDS011;4706;41.844;26.082;2023-08-20T04:24:50;11.80;;;10.10;;
9334;SDS011;4706;41.844;26.082;2023-08-20T04:27:15;11.13;;;10.10;;
9334;SDS011;4706;41.844;26.082;2023-08-20T04:29:41;14.25;;;10.45;;
9334;SDS011;4706;41.844;26.082;2023-08-20T04:32:06;11.90;;;10.40;;
9334;SDS011;4706;41.844;26.082;2023-08-20T04:34:32;11.93;;;10.73;;
9334;SDS011;4706;41.844;26.082;2023-08-20T04:36:58;11.60;;;10.48;;
9334;SDS011;4706;41.844;26.082;2023-08-20T04:39:24;11.68;;;10.07;;
9334;SDS011;4706;41.844;26.082;2023-08-20T04:41:49;10.65;;;9.43;;
9334;SDS011;4706;41.844;26.082;2023-08-20T04:44:15;11.75;;;10.75;;
9334;SDS011;4706;41.844;26.082;2023-08-20T04:46:40;12.77;;;11.02;;
9334;SDS011;4706;41.844;26.082;2023-08-20T04:49:07;10.80;;;9.70;;
9334;SDS011;4706;41.844;26.082;2023-08-20T04:51:32;11.00;;;10.00;;
9334;SDS011;4706;41.844;26.082;2023-08-20T04:53:58;12.07;;;10.88;;
9334;SDS011;4706;41.844;26.082;2023-08-20T04:56:23;10.23;;;9.23;;
9334;SDS011;4706;41.844;26.082;2023-08-20T04:58:48;11.60;;;10.38;;
9334;SDS011;4706;41.844;26.082;2023-08-20T05:01:14;10.82;;;9.52;;
9334;SDS011;4706;41.844;26.082;2023-08-20T05:03:39;12.63;;;11.32;;
9334;SDS011;4706;41.844;26.082;2023-08-20T05:06:05;11.18;;;10.07;;
9334;SDS011;4706;41.844;26.082;2023-08-20T05:08:30;10.50;;;9.63;;
9334;SDS011;4706;41.844;26.082;2023-08-20T05:10:56;11.73;;;10.52;;
9334;SDS011;4706;41.844;26.082;2023-08-20T05:13:22;11.35;;;10.45;;
9334;SDS011;4706;41.844;26.082;2023-08-20T05:15:49;12.95;;;10.18;;
9334;SDS011;4706;41.844;26.082;2023-08-20T05:18:14;10.55;;;9.65;;
9334;SDS011;4706;41.844;26.082;2023-08-20T05:20:40;11.68;;;10.68;;
9334;SDS011;4706;41.844;26.082;2023-08-20T05:23:05;12.32;;;11.13;;
9334;SDS011;4706;41.844;26.082;2023-08-20T05:25:31;16.50;;;10.35;;
9334;SDS011;4706;41.844;26.082;2023-08-20T05:27:56;13.00;;;10.02;;
9334;SDS011;4706;41.844;26.082;2023-08-20T05:30:22;12.68;;;11.32;;
9334;SDS011;4706;41.844;26.082;2023-08-20T05:32:47;11.80;;;10.45;;
9334;SDS011;4706;41.844;26.082;2023-08-20T05:35:13;11.57;;;9.55;;
9334;SDS011;4706;41.844;26.082;2023-08-20T05:37:38;10.50;;;9.43;;
9334;SDS011;4706;41.844;26.082;2023-08-20T05:40:04;11.90;;;10.63;;
9334;SDS011;4706;41.844;26.082;2023-08-20T05:42:30;10.88;;;9.23;;
9334;SDS011;4706;41.844;26.082;2023-08-20T05:44:55;11.20;;;9.40;;
9334;SDS011;4706;41.844;26.082;2023-08-20T05:47:21;10.55;;;9.57;;
9334;SDS011;4706;41.844;26.082;2023-08-20T05:49:46;9.68;;;8.85;;
9334;SDS011;4706;41.844;26.082;2023-08-20T05:52:12;10.40;;;9.30;;
9334;SDS011;4706;41.844;26.082;2023-08-20T05:54:37;9.60;;;8.80;;
9334;SDS011;4706;41.844;26.082;2023-08-20T05:57:03;10.65;;;9.63;;
9334;SDS011;4706;41.844;26.082;2023-08-20T05:59:28;11.68;;;10.13;;
9334;SDS011;4706;41.844;26.082;2023-08-20T06:01:54;11.45;;;10.05;;
9334;SDS011;4706;41.844;26.082;2023-08-20T06:04:20;9.70;;;8.77;;
9334;SDS011;4706;41.844;26.082;2023-08-20T06:06:45;9.38;;;8.40;;
9334;SDS011;4706;41.844;26.082;2023-08-20T06:09:11;9.75;;;8.75;;
9334;SDS011;4706;41.844;26.082;2023-08-20T06:11:36;10.73;;;9.52;;
9334;SDS011;4706;41.844;26.082;2023-08-20T06:14:02;11.02;;;9.95;;
9334;SDS011;4706;41.844;26.082;2023-08-20T06:16:28;9.82;;;8.82;;
9334;SDS011;4706;41.844;26.082;2023-08-20T06:18:53;9.43;;;8.50;;
9334;SDS011;4706;41.844;26.082;2023-08-20T06:21:19;10.27;;;9.35;;
9334;SDS011;4706;41.844;26.082;2023-08-20T06:23:44;10.00;;;9.05;;
9334;SDS011;4706;41.844;26.082;2023-08-20T06:26:10;9.88;;;9.07;;
9334;SDS011;4706;41.844;26.082;2023-08-20T06:28:36;10.90;;;9.82;;
9334;SDS011;4706;41.844;26.082;2023-08-20T06:31:02;10.55;;;9.50;;
9334;SDS011;4706;41.844;26.082;2023-08-20T06:33:27;10.82;;;9.82;;
9334;SDS011;4706;41.844;26.082;2023-08-20T06:35:53;11.85;;;10.27;;
9334;SDS011;4706;41.844;26.082;2023-08-20T06:38:18;11.38;;;8.90;;
9334;SDS011;4706;41.844;26.082;2023-08-20T06:40:44;9.95;;;8.88;;
9334;SDS011;4706;41.844;26.082;2023-08-20T06:43:09;10.48;;;9.43;;
9334;SDS011;4706;41.844;26.082;2023-08-20T06:45:34;10.00;;;9.00;;
9334;SDS011;4706;41.844;26.082;2023-08-20T06:48:00;10.93;;;9.90;;
9334;SDS011;4706;41.844;26.082;2023-08-20T06:50:25;10.15;;;9.25;;
9334;SDS011;4706;41.844;26.082;2023-08-20T06:52:51;9.52;;;8.57;;
9334;SDS011;4706;41.844;26.082;2023-08-20T06:55:17;10.63;;;7.68;;
9334;SDS011;4706;41.844;26.082;2023-08-20T06:57:42;7.90;;;7.13;;
9334;SDS011;4706;41.844;26.082;2023-08-20T07:00:07;11.88;;;9.10;;
9334;SDS011;4706;41.844;26.082;2023-08-20T07:02:33;11.02;;;9.88;;
9334;SDS011;4706;41.844;26.082;2023-08-20T07:04:59;9.43;;;8.30;;
9334;SDS011;4706;41.844;26.082;2023-08-20T07:07:24;9.20;;;8.38;;
9334;SDS011;4706;41.844;26.082;2023-08-20T07:09:50;10.02;;;8.10;;
9334;SDS011;4706;41.844;26.082;2023-08-20T07:12:15;8.43;;;6.00;;
9334;SDS011;4706;41.844;26.082;2023-08-20T07:14:41;8.07;;;7.28;;
9334;SDS011;4706;41.844;26.082;2023-08-20T07:17:07;8.32;;;7.32;;
9334;SDS011;4706;41.844;26.082;2023-08-20T07:19:32;9.57;;;8.63;;
9334;SDS011;4706;41.844;26.082;2023-08-20T07:21:57;20.02;;;18.38;;
9334;SDS011;4706;41.844;26.082;2023-08-20T07:24:23;9.75;;;6.20;;
9334;SDS011;4706;41.844;26.082;2023-08-20T07:26:53;10.52;;;7.72;;
9334;SDS011;4706;41.844;26.082;2023-08-20T07:29:24;5.82;;;5.10;;
9334;SDS011;4706;41.844;26.082;2023-08-20T07:31:50;5.78;;;5.18;;
9334;SDS011;4706;41.844;26.082;2023-08-20T07:34:15;8.02;;;5.10;;
9334;SDS011;4706;41.844;26.082;2023-08-20T07:36:41;5.40;;;4.90;;
9334;SDS011;4706;41.844;26.082;2023-08-20T07:39:06;13.07;;;12.02;;
9334;SDS011;4706;41.844;26.082;2023-08-20T07:41:33;13.90;;;12.70;;
9334;SDS011;4706;41.844;26.082;2023-08-20T07:43:59;7.53;;;6.80;;
9334;SDS011;4706;41.844;26.082;2023-08-20T07:46:24;7.32;;;4.72;;
9334;SDS011;4706;41.844;26.082;2023-08-20T07:48:50;6.63;;;5.32;;
9334;SDS011;4706;41.844;26.082;2023-08-20T07:51:15;7.55;;;4.72;;
9334;SDS011;4706;41.844;26.082;2023-08-20T07:53:41;8.70;;;4.63;;
9334;SDS011;4706;41.844;26.082;2023-08-20T07:56:07;5.43;;;4.68;;
9334;SDS011;4706;41.844;26.082;2023-08-20T07:58:33;5.47;;;4.57;;
9334;SDS011;4706;41.844;26.082;2023-08-20T08:00:59;4.50;;;4.10;;
9334;SDS011;4706;41.844;26.082;2023-08-20T08:03:25;5.07;;;4.68;;
9334;SDS011;4706;41.844;26.082;2023-08-20T08:05:54;8.38;;;4.45;;
9334;SDS011;4706;41.844;26.082;2023-08-20T08:08:20;7.72;;;5.03;;
9334;SDS011;4706;41.844;26.082;2023-08-20T08:10:47;7.03;;;5.03;;
9334;SDS011;4706;41.844;26.082;2023-08-20T08:13:13;5.20;;;4.70;;
9334;SDS011;4706;41.844;26.082;2023-08-20T08:15:40;5.22;;;4.45;;
9334;SDS011;4706;41.844;26.082;2023-08-20T08:18:06;7.35;;;4.72;;
9334;SDS011;4706;41.844;26.082;2023-08-20T08:20:32;8.43;;;5.05;;
9334;SDS011;4706;41.844;26.082;2023-08-20T08:22:59;4.82;;;4.43;;
9334;SDS011;4706;41.844;26.082;2023-08-20T08:25:25;5.20;;;4.70;;
9334;SDS011;4706;41.844;26.082;2023-08-20T08:27:50;5.07;;;4.68;;
9334;SDS011;4706;41.844;26.082;2023-08-20T08:30:16;5.88;;;5.38;;
9334;SDS011;4706;41.844;26.082;2023-08-20T08:32:41;5.75;;;5.25;;
9334;SDS011;4706;41.844;26.082;2023-08-20T08:35:07;7.53;;;5.03;;
9334;SDS011;4706;41.844;26.082;2023-08-20T08:37:33;5.25;;;4.80;;
9334;SDS011;4706;41.844;26.082;2023-08-20T08:39:59;5.63;;;5.13;;
9334;SDS011;4706;41.844;26.082;2023-08-20T08:42:25;5.93;;;5.30;;
9334;SDS011;4706;41.844;26.082;2023-08-20T08:44:50;6.47;;;5.88;;
9334;SDS011;4706;41.844;26.082;2023-08-20T08:47:17;5.20;;;4.80;;
9334;SDS011;4706;41.844;26.082;2023-08-20T08:49:43;5.68;;;5.18;;
9334;SDS011;4706;41.844;26.082;2023-08-20T08:52:11;6.03;;;4.90;;
9334;SDS011;4706;41.844;26.082;2023-08-20T08:54:37;5.30;;;4.80;;
9334;SDS011;4706;41.844;26.082;2023-08-20T08:57:04;5.90;;;4.88;;
9334;SDS011;4706;41.844;26.082;2023-08-20T08:59:29;5.80;;;5.30;;
9334;SDS011;4706;41.844;26.082;2023-08-20T09:01:55;8.02;;;6.50;;
9334;SDS011;4706;41.844;26.082;2023-08-20T09:04:22;5.82;;;5.00;;
9334;SDS011;4706;41.844;26.082;2023-08-20T09:06:49;5.63;;;5.10;;
9334;SDS011;4706;41.844;26.082;2023-08-20T09:09:19;5.82;;;5.32;;
9334;SDS011;4706;41.844;26.082;2023-08-20T09:11:46;4.65;;;4.25;;
9334;SDS011;4706;41.844;26.082;2023-08-20T09:14:23;6.35;;;4.80;;
9334;SDS011;4706;41.844;26.082;2023-08-20T09:19:27;5.10;;;4.60;;
9334;SDS011;4706;41.844;26.082;2023-08-20T09:21:54;5.45;;;4.90;;
9334;SDS011;4706;41.844;26.082;2023-08-20T09:24:43;5.90;;;4.90;;
9334;SDS011;4706;41.844;26.082;2023-08-20T09:27:10;6.15;;;4.75;;
9334;SDS011;4706;41.844;26.082;2023-08-20T09:34:40;6.57;;;4.55;;
9334;SDS011;4706;41.844;26.082;2023-08-20T09:37:10;5.35;;;4.28;;
9334;SDS011;4706;41.844;26.082;2023-08-20T09:39:37;5.68;;;4.22;;
9334;SDS011;4706;41.844;26.082;2023-08-20T09:42:03;4.40;;;4.00;;
9334;SDS011;4706;41.844;26.082;2023-08-20T09:44:34;9.32;;;4.60;;
9334;SDS011;4706;41.844;26.082;2023-08-20T09:47:02;5.38;;;4.90;;
9334;SDS011;4706;41.844;26.082;2023-08-20T09:49:42;5.57;;;4.60;;
9334;SDS011;4706;41.844;26.082;2023-08-20T09:52:10;5.25;;;4.47;;
9334;SDS011;4706;41.844;26.082;2023-08-20T09:54:45;5.10;;;4.32;;
9334;SDS011;4706;41.844;26.082;2023-08-20T09:57:46;5.38;;;4.55;;
9334;SDS011;4706;41.844;26.082;2023-08-20T10:00:07;5.78;;;5.22;;
9334;SDS011;4706;41.844;26.082;2023-08-20T10:02:37;5.38;;;4.88;;
9334;SDS011;4706;41.844;26.082;2023-08-20T10:05:05;6.82;;;4.70;;
9334;SDS011;4706;41.844;26.082;2023-08-20T10:07:31;5.00;;;4.22;;
9334;SDS011;4706;41.844;26.082;2023-08-20T10:09:57;5.50;;;5.00;;
9334;SDS011;4706;41.844;26.082;2023-08-20T10:12:28;7.15;;;4.93;;
9334;SDS011;4706;41.844;26.082;2023-08-20T10:14:58;7.88;;;5.03;;
9334;SDS011;4706;41.844;26.082;2023-08-20T10:17:25;7.07;;;5.38;;
9334;SDS011;4706;41.844;26.082;2023-08-20T10:19:54;5.45;;;5.00;;
9334;SDS011;4706;41.844;26.082;2023-08-20T10:22:22;5.88;;;5.40;;
9334;SDS011;4706;41.844;26.082;2023-08-20T10:24:51;6.05;;;5.00;;
9334;SDS011;4706;41.844;26.082;2023-08-20T10:27:28;6.28;;;4.88;;
9334;SDS011;4706;41.844;26.082;2023-08-20T10:29:56;5.90;;;4.85;;
9334;SDS011;4706;41.844;26.082;2023-08-20T10:35:08;5.72;;;4.53;;
9334;SDS011;4706;41.844;26.082;2023-08-20T10:37:34;5.45;;;5.05;;
9334;SDS011;4706;41.844;26.082;2023-08-20T10:40:01;5.28;;;4.72;;
9334;SDS011;4706;41.844;26.082;2023-08-20T10:42:27;5.45;;;4.95;;
9334;SDS011;4706;41.844;26.082;2023-08-20T10:50:07;5.28;;;4.88;;
9334;SDS011;4706;41.844;26.082;2023-08-20T10:52:46;5.40;;;4.90;;
9334;SDS011;4706;41.844;26.082;2023-08-20T10:55:13;5.75;;;5.20;;
9334;SDS011;4706;41.844;26.082;2023-08-20T10:57:40;8.93;;;5.50;;
9334;SDS011;4706;41.844;26.082;2023-08-20T11:00:06;9.88;;;5.10;;
9334;SDS011;4706;41.844;26.082;2023-08-20T11:02:36;5.43;;;4.90;;
9334;SDS011;4706;41.844;26.082;2023-08-20T11:05:04;8.55;;;5.60;;
9334;SDS011;4706;41.844;26.082;2023-08-20T11:07:40;6.82;;;4.63;;
9334;SDS011;4706;41.844;26.082;2023-08-20T11:10:06;6.10;;;5.03;;
9334;SDS011;4706;41.844;26.082;2023-08-20T11:12:33;5.50;;;4.90;;
9334;SDS011;4706;41.844;26.082;2023-08-20T11:15:01;5.00;;;4.60;;
9334;SDS011;4706;41.844;26.082;2023-08-20T11:17:28;5.75;;;5.25;;
9334;SDS011;4706;41.844;26.082;2023-08-20T11:19:53;9.13;;;5.43;;
9334;SDS011;4706;41.844;26.082;2023-08-20T11:22:19;7.57;;;5.63;;
9334;SDS011;4706;41.844;26.082;2023-08-20T11:24:45;7.50;;;5.38;;
9334;SDS011;4706;41.844;26.082;2023-08-20T11:27:11;7.85;;;5.10;;
9334;SDS011;4706;41.844;26.082;2023-08-20T11:29:37;6.05;;;5.18;;
9334;SDS011;4706;41.844;26.082;2023-08-20T11:32:07;7.75;;;5.40;;
9334;SDS011;4706;41.844;26.082;2023-08-20T11:34:34;6.57;;;4.88;;
9334;SDS011;4706;41.844;26.082;2023-08-20T11:37:00;5.72;;;5.18;;
9334;SDS011;4706;41.844;26.082;2023-08-20T11:39:28;5.93;;;5.43;;
9334;SDS011;4706;41.844;26.082;2023-08-20T11:41:54;5.22;;;4.70;;
9334;SDS011;4706;41.844;26.082;2023-08-20T11:44:20;6.65;;;4.60;;
9334;SDS011;4706;41.844;26.082;2023-08-20T11:46:46;9.60;;;5.40;;
9334;SDS011;4706;41.844;26.082;2023-08-20T11:49:12;5.70;;;5.20;;
9334;SDS011;4706;41.844;26.082;2023-08-20T11:51:39;6.13;;;5.30;;
9334;SDS011;4706;41.844;26.082;2023-08-20T11:54:07;7.97;;;5.07;;
9334;SDS011;4706;41.844;26.082;2023-08-20T11:56:34;6.07;;;5.53;;
9334;SDS011;4706;41.844;26.082;2023-08-20T11:59:00;8.25;;;5.18;;
9334;SDS011;4706;41.844;26.082;2023-08-20T12:01:30;6.25;;;5.15;;
9334;SDS011;4706;41.844;26.082;2023-08-20T12:04:03;5.72;;;5.13;;
9334;SDS011;4706;41.844;26.082;2023-08-20T12:06:30;6.88;;;5.28;;
9334;SDS011;4706;41.844;26.082;2023-08-20T12:08:56;5.85;;;5.25;;
9334;SDS011;4706;41.844;26.082;2023-08-20T12:11:29;5.40;;;4.90;;
9334;SDS011;4706;41.844;26.082;2023-08-20T12:13:56;5.47;;;4.90;;
9334;SDS011;4706;41.844;26.082;2023-08-20T12:16:21;6.25;;;5.65;;
9334;SDS011;4706;41.844;26.082;2023-08-20T12:18:49;5.93;;;5.43;;
9334;SDS011;4706;41.844;26.082;2023-08-20T12:21:14;10.65;;;5.25;;
9334;SDS011;4706;41.844;26.082;2023-08-20T12:23:40;9.10;;;5.35;;
9334;SDS011;4706;41.844;26.082;2023-08-20T12:26:06;6.43;;;5.50;;
9334;SDS011;4706;41.844;26.082;2023-08-20T12:28:33;7.70;;;5.63;;
9334;SDS011;4706;41.844;26.082;2023-08-20T12:30:59;7.30;;;5.75;;
9334;SDS011;4706;41.844;26.082;2023-08-20T12:33:24;9.70;;;6.35;;
9334;SDS011;4706;41.844;26.082;2023-08-20T12:35:53;16.55;;;13.80;;
9334;SDS011;4706;41.844;26.082;2023-08-20T12:38:19;7.38;;;6.25;;
9334;SDS011;4706;41.844;26.082;2023-08-20T12:40:45;6.70;;;6.03;;
9334;SDS011;4706;41.844;26.082;2023-08-20T12:43:10;6.05;;;5.50;;
9334;SDS011;4706;41.844;26.082;2023-08-20T12:45:36;7.10;;;6.20;;
9334;SDS011;4706;41.844;26.082;2023-08-20T12:48:03;7.47;;;6.10;;
9334;SDS011;4706;41.844;26.082;2023-08-20T12:50:29;7.10;;;6.18;;
9334;SDS011;4706;41.844;26.082;2023-08-20T12:52:54;6.55;;;5.85;;
9334;SDS011;4706;41.844;26.082;2023-08-20T12:55:20;6.47;;;5.88;;
9334;SDS011;4706;41.844;26.082;2023-08-20T12:57:53;7.03;;;5.47;;
9334;SDS011;4706;41.844;26.082;2023-08-20T13:00:23;8.77;;;6.40;;
9334;SDS011;4706;41.844;26.082;2023-08-20T13:02:52;5.88;;;5.20;;
9334;SDS011;4706;41.844;26.082;2023-08-20T13:05:20;6.57;;;5.82;;
9334;SDS011;4706;41.844;26.082;2023-08-20T13:07:47;7.00;;;5.65;;
9334;SDS011;4706;41.844;26.082;2023-08-20T13:10:13;5.70;;;5.20;;
9334;SDS011;4706;41.844;26.082;2023-08-20T13:12:42;7.25;;;5.55;;
9334;SDS011;4706;41.844;26.082;2023-08-20T13:15:19;5.97;;;5.20;;
9334;SDS011;4706;41.844;26.082;2023-08-20T13:17:46;6.00;;;5.50;;
9334;SDS011;4706;41.844;26.082;2023-08-20T13:20:13;6.55;;;5.20;;
9334;SDS011;4706;41.844;26.082;2023-08-20T13:22:40;5.60;;;5.13;;
9334;SDS011;4706;41.844;26.082;2023-08-20T13:25:05;8.82;;;5.88;;
9334;SDS011;4706;41.844;26.082;2023-08-20T13:27:32;5.72;;;4.80;;
9334;SDS011;4706;41.844;26.082;2023-08-20T13:29:57;6.75;;;4.95;;
9334;SDS011;4706;41.844;26.082;2023-08-20T13:32:23;6.28;;;5.68;;
9334;SDS011;4706;41.844;26.082;2023-08-20T13:34:49;5.68;;;4.70;;
9334;SDS011;4706;41.844;26.082;2023-08-20T13:37:15;5.57;;;5.07;;
9334;SDS011;4706;41.844;26.082;2023-08-20T13:39:41;6.30;;;5.70;;
9334;SDS011;4706;41.844;26.082;2023-08-20T13:42:06;5.43;;;4.63;;
9334;SDS011;4706;41.844;26.082;2023-08-20T13:44:32;6.22;;;4.88;;
9334;SDS011;4706;41.844;26.082;2023-08-20T13:46:58;5.85;;;5.25;;
9334;SDS011;4706;41.844;26.082;2023-08-20T13:49:24;8.63;;;5.13;;
9334;SDS011;4706;41.844;26.082;2023-08-20T13:51:50;9.93;;;4.93;;
9334;SDS011;4706;41.844;26.082;2023-08-20T13:54:16;5.60;;;5.10;;
9334;SDS011;4706;41.844;26.082;2023-08-20T13:56:42;5.60;;;4.85;;
9334;SDS011;4706;41.844;26.082;2023-08-20T13:59:09;5.40;;;4.90;;
9334;SDS011;4706;41.844;26.082;2023-08-20T14:01:35;5.72;;;5.10;;
9334;SDS011;4706;41.844;26.082;2023-08-20T14:04:01;5.45;;;5.00;;
9334;SDS011;4706;41.844;26.082;2023-08-20T14:06:27;5.57;;;5.00;;
9334;SDS011;4706;41.844;26.082;2023-08-20T14:08:53;5.97;;;5.40;;
9334;SDS011;4706;41.844;26.082;2023-08-20T14:11:18;6.10;;;5.28;;
9334;SDS011;4706;41.844;26.082;2023-08-20T14:13:44;6.72;;;6.00;;
9334;SDS011;4706;41.844;26.082;2023-08-20T14:16:10;9.93;;;8.50;;
9334;SDS011;4706;41.844;26.082;2023-08-20T14:18:35;6.35;;;5.30;;
9334;SDS011;4706;41.844;26.082;2023-08-20T14:21:01;11.25;;;5.72;;
9334;SDS011;4706;41.844;26.082;2023-08-20T14:23:26;11.95;;;5.40;;
9334;SDS011;4706;41.844;26.082;2023-08-20T14:25:53;5.45;;;5.13;;
9334;SDS011;4706;41.844;26.082;2023-08-20T14:28:19;9.35;;;8.52;;
9334;SDS011;4706;41.844;26.082;2023-08-20T14:30:45;8.45;;;6.75;;
9334;SDS011;4706;41.844;26.082;2023-08-20T14:33:11;7.38;;;5.47;;
9334;SDS011;4706;41.844;26.082;2023-08-20T14:35:36;5.63;;;5.13;;
9334;SDS011;4706;41.844;26.082;2023-08-20T14:38:02;7.03;;;5.60;;
9334;SDS011;4706;41.844;26.082;2023-08-20T14:40:28;8.80;;;5.85;;
9334;SDS011;4706;41.844;26.082;2023-08-20T14:42:53;6.40;;;5.70;;
9334;SDS011;4706;41.844;26.082;2023-08-20T14:45:19;7.53;;;6.43;;
9334;SDS011;4706;41.844;26.082;2023-08-20T14:47:44;9.65;;;6.10;;
9334;SDS011;4706;41.844;26.082;2023-08-20T14:50:10;6.43;;;5.82;;
9334;SDS011;4706;41.844;26.082;2023-08-20T14:52:36;7.75;;;5.93;;
9334;SDS011;4706;41.844;26.082;2023-08-20T14:55:01;6.10;;;5.50;;
9334;SDS011;4706;41.844;26.082;2023-08-20T14:57:28;5.70;;;5.20;;
9334;SDS011;4706;41.844;26.082;2023-08-20T14:59:54;9.93;;;6.03;;
9334;SDS011;4706;41.844;26.082;2023-08-20T15:02:19;6.50;;;5.90;;
9334;SDS011;4706;41.844;26.082;2023-08-20T15:04:44;8.25;;;6.35;;
9334;SDS011;4706;41.844;26.082;2023-08-20T15:07:10;5.97;;;5.40;;
9334;SDS011;4706;41.844;26.082;2023-08-20T15:09:35;6.70;;;6.10;;
9334;SDS011;4706;41.844;26.082;2023-08-20T15:12:01;6.55;;;5.50;;